createdAt,value
2019-05-15T00:03:54.688Z,6.68
2019-05-15T00:09:19.054Z,6.71
2019-05-15T00:14:39.277Z,6.71
2019-05-15T00:19:59.960Z,6.69
2019-05-15T00:25:22.761Z,6.64
2019-05-15T00:30:42.941Z,6.70
2019-05-15T00:36:03.472Z,6.73
2019-05-15T00:41:24.007Z,6.68
2019-05-15T00:46:44.539Z,6.58
2019-05-15T00:52:05.104Z,6.59
2019-05-15T00:57:25.649Z,6.57
2019-05-15T01:02:46.174Z,6.59
2019-05-15T01:08:08.223Z,6.54
2019-05-15T01:13:28.956Z,6.50
2019-05-15T01:18:50.182Z,6.47
2019-05-15T01:24:10.736Z,6.36
2019-05-15T01:29:41.903Z,6.37
2019-05-15T01:34:53.775Z,6.30
2019-05-15T01:40:14.411Z,6.29
2019-05-15T01:45:35.073Z,6.31
2019-05-15T01:50:55.619Z,6.17
2019-05-15T01:56:18.579Z,6.13
2019-05-15T02:01:39.188Z,6.12
2019-05-15T02:07:00.060Z,6.15
2019-05-15T02:12:21.095Z,6.09
2019-05-15T02:17:41.639Z,6.04
2019-05-15T02:23:02.299Z,6.00
2019-05-15T02:28:22.984Z,5.93
2019-05-15T02:33:43.577Z,5.79
2019-05-15T02:39:04.178Z,5.79
2019-05-15T02:44:24.718Z,5.79
2019-05-15T02:49:45.274Z,5.73
2019-05-15T02:55:08.937Z,5.81
2019-05-15T03:00:41.855Z,5.79
2019-05-15T03:05:51.731Z,5.85
2019-05-15T03:11:12.396Z,5.90
2019-05-15T03:16:33.558Z,5.97
2019-05-15T03:21:54.193Z,6.03
2019-05-15T03:27:14.821Z,6.08
2019-05-15T03:32:43.675Z,6.02
2019-05-15T03:37:59.865Z,6.05
2019-05-15T03:43:20.084Z,6.21
2019-05-15T03:48:40.732Z,6.30
2019-05-15T03:54:01.317Z,6.35
2019-05-15T03:59:21.881Z,6.40
2019-05-15T04:04:42.507Z,6.54
2019-05-15T04:10:03.221Z,6.62
2019-05-15T04:15:24.727Z,6.85
2019-05-15T04:20:45.325Z,6.89
2019-05-15T04:26:09.483Z,6.94
2019-05-15T04:31:50.803Z,7.32
2019-05-15T04:36:54.215Z,7.44
2019-05-15T04:42:14.801Z,7.53
2019-05-15T04:47:35.370Z,7.56
2019-05-15T04:52:59.043Z,7.42
2019-05-15T04:58:20.679Z,7.40
2019-05-15T05:03:40.729Z,7.52
2019-05-15T05:09:01.325Z,7.79
2019-05-15T05:14:21.993Z,7.95
2019-05-15T05:19:42.552Z,8.04
2019-05-15T05:25:03.105Z,7.93
2019-05-15T05:30:24.446Z,7.84
2019-05-15T05:35:45.267Z,7.88
2019-05-15T05:41:08.201Z,8.13
2019-05-15T05:46:29.032Z,8.31
2019-05-15T05:51:49.612Z,8.17
2019-05-15T05:57:10.177Z,7.91
2019-05-15T06:02:43.853Z,7.92
2019-05-15T06:07:53.110Z,8.01
2019-05-15T06:13:13.707Z,8.20
2019-05-15T06:18:34.394Z,8.13
2019-05-15T06:23:56.381Z,7.94
2019-05-15T06:29:17.940Z,7.96
2019-05-15T06:34:38.632Z,8.06
2019-05-15T06:39:59.718Z,8.09
2019-05-15T06:45:20.776Z,8.19
2019-05-15T06:50:49.097Z,8.18
2019-05-15T06:56:10.339Z,8.37
2019-05-15T07:01:30.939Z,8.48
2019-05-15T07:06:51.599Z,8.57
2019-05-15T07:12:12.170Z,8.56
2019-05-15T07:17:32.768Z,8.79
2019-05-15T07:22:53.348Z,8.81
2019-05-15T07:28:13.944Z,8.98
2019-05-15T07:33:40.366Z,9.24
2019-05-15T07:38:57.950Z,9.31
2019-05-15T07:44:19.044Z,9.60
2019-05-15T07:49:39.651Z,9.96
2019-05-15T07:55:00.224Z,9.96
2019-05-15T08:00:28.873Z,10.16
2019-05-15T08:05:58.802Z,10.06
2019-05-15T08:11:20.464Z,10.05
2019-05-15T08:16:34.463Z,10.24
2019-05-15T08:21:55.015Z,10.08
2019-05-15T08:27:15.741Z,10.14
2019-05-15T08:32:38.707Z,10.29
2019-05-15T08:37:58.735Z,10.12
2019-05-15T08:43:19.402Z,10.33
2019-05-15T08:48:39.965Z,10.35
2019-05-15T08:54:00.557Z,10.48
2019-05-15T08:59:21.255Z,10.57
2019-05-15T09:04:41.833Z,10.57
2019-05-15T09:10:02.374Z,10.84
2019-05-15T09:15:26.265Z,11.11
2019-05-15T09:20:49.282Z,11.18
2019-05-15T09:26:09.424Z,11.33
2019-05-15T09:31:30.143Z,11.23
2019-05-15T09:36:50.765Z,11.07
2019-05-15T09:42:11.337Z,11.32
2019-05-15T09:47:31.901Z,12.28
2019-05-15T09:52:52.451Z,11.94
2019-05-15T09:58:13.035Z,11.74
2019-05-15T10:03:33.680Z,11.88
2019-05-15T10:08:54.296Z,11.89
2019-05-15T10:14:15.031Z,12.50
2019-05-15T10:19:35.668Z,12.32
2019-05-15T10:24:58.590Z,12.57
2019-05-15T10:30:19.689Z,12.84
2019-05-15T10:35:40.262Z,12.61
2019-05-15T10:41:08.714Z,13.04
2019-05-15T10:46:23.200Z,12.89
2019-05-15T10:51:43.763Z,13.02
2019-05-15T10:57:05.384Z,13.11
2019-05-15T11:02:28.921Z,12.86
2019-05-15T11:07:49.056Z,13.13
2019-05-15T11:13:09.614Z,13.07
2019-05-15T11:18:31.078Z,13.31
2019-05-15T11:23:51.642Z,13.32
2019-05-15T11:29:12.211Z,13.38
2019-05-15T11:34:32.783Z,13.33
2019-05-15T11:39:53.353Z,13.30
2019-05-15T11:45:14.009Z,13.46
2019-05-15T11:50:36.302Z,13.53
2019-05-15T11:55:56.844Z,13.53
2019-05-15T12:01:19.250Z,14.04
2019-05-15T12:06:39.845Z,14.34
2019-05-15T12:12:00.420Z,15.46
2019-05-15T12:17:20.999Z,15.46
2019-05-15T12:22:41.533Z,15.82
2019-05-15T12:28:02.104Z,16.23
2019-05-15T12:33:22.765Z,16.60
2019-05-15T12:38:43.631Z,15.73
2019-05-15T13:00:12.304Z,16.91
2019-05-15T13:05:29.080Z,17.10
2019-05-15T13:10:49.024Z,16.27
2019-05-15T13:16:09.639Z,16.00
2019-05-15T13:21:30.225Z,16.10
2019-05-15T13:26:50.795Z,16.58
2019-05-15T13:32:12.594Z,16.64
2019-05-15T13:37:30.587Z,17.71
2019-05-15T13:42:51.779Z,16.85
2019-05-15T13:48:11.710Z,17.58
2019-05-15T13:53:32.357Z,16.58
2019-05-15T13:58:52.941Z,15.59
2019-05-15T14:04:13.552Z,14.81
2019-05-15T14:09:34.735Z,13.97
2019-05-15T14:14:58.033Z,13.97
2019-05-15T14:20:18.704Z,14.04
2019-05-15T14:25:39.285Z,14.97
2019-05-15T14:30:59.987Z,15.25
2019-05-15T14:36:20.656Z,14.80
2019-05-15T14:41:41.234Z,14.35
2019-05-15T14:47:01.821Z,14.06
2019-05-15T14:52:22.556Z,13.63
2019-05-15T14:57:43.148Z,13.21
2019-05-15T15:03:04.190Z,12.50
2019-05-15T15:08:25.573Z,12.05
2019-05-15T15:13:46.343Z,11.71
2019-05-15T15:19:06.917Z,11.64
2019-05-15T15:24:27.490Z,11.26
2019-05-15T15:29:48.357Z,11.32
2019-05-15T15:35:10.348Z,10.84
2019-05-15T15:40:25.032Z,11.04
2019-05-15T15:45:45.597Z,10.82
2019-05-15T15:51:08.946Z,10.76
2019-05-15T15:56:29.116Z,10.26
2019-05-15T16:01:50.070Z,9.93
2019-05-15T16:07:10.593Z,9.60
2019-05-15T16:12:31.253Z,9.36
2019-05-15T16:17:52.369Z,9.13
2019-05-15T16:23:12.924Z,9.19
2019-05-15T16:28:33.491Z,9.12
2019-05-15T16:33:54.079Z,8.92
2019-05-15T16:39:14.966Z,8.97
2019-05-15T16:44:38.190Z,8.80
2019-05-15T16:49:58.062Z,8.84
2019-05-15T16:55:20.525Z,8.41
2019-05-15T17:00:41.561Z,8.41
2019-05-15T17:06:02.100Z,8.21
2019-05-15T17:11:22.684Z,8.17
2019-05-15T17:16:44.141Z,8.17
2019-05-15T17:22:04.689Z,8.06
2019-05-15T17:27:25.228Z,8.09
2019-05-15T17:32:45.848Z,8.10
2019-05-15T17:38:06.453Z,8.24
2019-05-15T17:43:28.749Z,8.31
2019-05-15T17:48:55.617Z,8.30
2019-05-15T17:54:13.954Z,8.21
2019-05-15T17:59:37.927Z,8.20
2019-05-15T18:05:00.923Z,8.16
2019-05-15T18:10:23.505Z,8.14
2019-05-15T18:15:45.747Z,8.25
2019-05-15T18:21:08.657Z,8.20
2019-05-15T18:26:29.678Z,8.16
2019-05-15T18:31:50.295Z,8.16
2019-05-15T18:37:13.240Z,8.20
2019-05-15T18:42:34.837Z,8.22
2019-05-15T18:47:58.470Z,8.26
2019-05-15T18:53:18.471Z,8.17
2019-05-15T18:58:40.429Z,8.12
2019-05-15T19:03:55.326Z,8.10
2019-05-15T19:09:18.986Z,8.14
2019-05-15T19:14:39.790Z,8.09
2019-05-15T19:20:02.503Z,8.12
2019-05-15T19:25:25.481Z,8.13
2019-05-15T19:30:48.157Z,8.23
2019-05-15T19:36:10.495Z,8.29
2019-05-15T19:41:32.807Z,8.30
2019-05-15T19:46:55.509Z,8.42
2019-05-15T19:52:18.074Z,8.52
2019-05-15T20:00:40.050Z,8.68
2019-05-15T20:06:04.313Z,8.59
2019-05-15T20:11:28.870Z,8.61
2019-05-15T20:16:52.517Z,8.66
2019-05-15T20:22:18.908Z,8.67
2019-05-15T20:27:44.884Z,8.68
2019-05-15T20:33:09.617Z,8.72
2019-05-15T20:38:34.004Z,8.78
2019-05-15T20:44:01.277Z,8.81
2019-05-15T20:49:28.443Z,8.85
2019-05-15T20:54:50.084Z,8.90
2019-05-15T21:00:13.932Z,8.96
2019-05-15T21:05:38.129Z,9.03
2019-05-15T21:11:02.896Z,9.09
2019-05-15T21:16:27.988Z,9.14
2019-05-15T21:21:51.272Z,9.18
2019-05-15T21:27:14.884Z,9.21
2019-05-15T21:32:38.513Z,9.25
2019-05-15T21:38:00.781Z,9.26
2019-05-15T21:43:24.730Z,9.31
2019-05-15T21:48:48.827Z,9.31
2019-05-15T21:54:12.779Z,9.36
2019-05-15T21:59:38.394Z,9.37
2019-05-15T22:05:02.996Z,9.42
2019-05-15T22:10:26.668Z,9.48
2019-05-15T22:15:52.400Z,9.53
2019-05-15T22:21:18.616Z,9.57
2019-05-15T22:26:41.875Z,9.61
2019-05-15T22:32:04.840Z,9.69
2019-05-15T22:37:29.554Z,9.70
2019-05-15T22:42:52.922Z,9.73
2019-05-15T22:48:18.235Z,9.72
2019-05-15T22:53:41.603Z,9.70
2019-05-15T22:59:08.414Z,9.72
2019-05-15T23:04:32.413Z,9.75
2019-05-15T23:09:58.309Z,9.79
2019-05-15T23:15:22.117Z,9.82
2019-05-15T23:20:47.848Z,9.86
2019-05-15T23:26:12.027Z,9.90
2019-05-15T23:31:34.532Z,9.94
2019-05-15T23:36:57.760Z,9.97
2019-05-15T23:42:22.641Z,10.02
2019-05-15T23:47:48.473Z,10.04
2019-05-15T23:53:10.741Z,10.05
2019-05-15T23:58:33.869Z,10.07
